createdAt,value
2018-07-20T00:01:45.111Z,18.20
2018-07-20T00:04:13.559Z,18.06
2018-07-20T00:06:41.994Z,18.17
2018-07-20T00:09:10.975Z,18.23
2018-07-20T00:11:39.496Z,18.21
2018-07-20T00:14:07.930Z,18.11
2018-07-20T00:16:36.373Z,17.95
2018-07-20T00:19:04.817Z,17.78
2018-07-20T00:21:33.287Z,17.89
2018-07-20T00:24:02.117Z,17.85
2018-07-20T00:26:30.564Z,17.93
2018-07-20T00:28:59.159Z,17.97
2018-07-20T00:31:27.796Z,17.77
2018-07-20T00:33:56.251Z,17.68
2018-07-20T00:36:24.687Z,17.79
2018-07-20T00:38:53.270Z,18.00
2018-07-20T00:41:21.708Z,17.74
2018-07-20T00:43:50.150Z,17.62
2018-07-20T00:46:19.119Z,17.51
2018-07-20T00:48:47.577Z,17.61
2018-07-20T00:51:16.026Z,17.71
2018-07-20T00:53:44.944Z,17.86
2018-07-20T00:56:13.348Z,18.06
2018-07-20T00:58:41.858Z,17.73
2018-07-20T01:01:10.330Z,17.83
2018-07-20T01:03:38.788Z,17.96
2018-07-20T01:06:07.859Z,18.15
2018-07-20T01:08:36.321Z,17.99
2018-07-20T01:11:04.935Z,17.98
2018-07-20T01:13:33.361Z,17.76
2018-07-20T01:16:01.858Z,17.58
2018-07-20T01:18:30.363Z,17.62
2018-07-20T01:20:59.119Z,17.71
2018-07-20T01:23:27.636Z,17.62
2018-07-20T01:25:56.199Z,17.34
2018-07-20T01:28:24.622Z,17.53
2018-07-20T01:30:53.122Z,17.49
2018-07-20T01:33:21.624Z,17.50
2018-07-20T01:35:50.340Z,17.15
2018-07-20T01:38:18.768Z,17.13
2018-07-20T01:40:47.186Z,17.26
2018-07-20T01:43:15.647Z,17.14
2018-07-20T01:45:44.166Z,17.18
2018-07-20T01:48:12.619Z,17.11
2018-07-20T01:50:41.039Z,17.12
2018-07-20T01:53:09.860Z,17.17
2018-07-20T01:55:38.384Z,17.24
2018-07-20T01:58:06.860Z,17.28
2018-07-20T02:00:35.317Z,17.04
2018-07-20T02:03:03.737Z,16.96
2018-07-20T02:05:32.149Z,16.94
2018-07-20T02:08:00.639Z,16.90
2018-07-20T02:10:29.205Z,16.76
2018-07-20T02:12:57.796Z,16.81
2018-07-20T02:15:26.236Z,16.87
2018-07-20T02:17:54.679Z,16.82
2018-07-20T02:20:23.087Z,16.96
2018-07-20T02:22:51.605Z,16.96
2018-07-20T02:25:20.263Z,16.82
2018-07-20T02:27:48.701Z,16.87
2018-07-20T02:30:17.166Z,16.81
2018-07-20T02:32:45.967Z,16.70
2018-07-20T02:35:14.400Z,16.81
2018-07-20T02:37:42.898Z,16.79
2018-07-20T02:40:12.240Z,16.85
2018-07-20T02:42:40.713Z,16.65
2018-07-20T02:45:09.180Z,16.70
2018-07-20T02:47:37.780Z,16.60
2018-07-20T02:50:06.222Z,16.61
2018-07-20T02:52:34.660Z,16.56
2018-07-20T02:55:03.124Z,16.66
2018-07-20T02:57:31.612Z,16.50
2018-07-20T03:00:00.048Z,18.22
2018-07-20T03:02:28.508Z,20.10
2018-07-20T03:04:57.030Z,19.92
2018-07-20T03:07:25.513Z,18.86
2018-07-20T03:09:53.904Z,19.21
2018-07-20T03:12:22.352Z,19.35
2018-07-20T03:14:50.822Z,19.55
2018-07-20T03:17:19.268Z,19.12
2018-07-20T03:19:47.716Z,19.53
2018-07-20T03:22:17.591Z,18.44
2018-07-20T03:24:46.033Z,19.03
2018-07-20T03:27:14.471Z,17.73
2018-07-20T03:29:42.947Z,18.67
2018-07-20T03:32:11.421Z,19.14
2018-07-20T03:34:39.847Z,19.56
2018-07-20T03:37:08.521Z,19.51
2018-07-20T03:39:36.953Z,19.98
2018-07-20T03:42:05.701Z,19.90
2018-07-20T03:44:34.140Z,17.83
2018-07-20T03:47:02.635Z,17.82
2018-07-20T03:49:31.114Z,17.72
2018-07-20T03:51:59.555Z,17.38
2018-07-20T03:54:28.197Z,17.42
2018-07-20T03:56:56.631Z,17.27
2018-07-20T03:59:25.113Z,16.88
2018-07-20T04:01:53.615Z,16.98
2018-07-20T04:04:22.203Z,17.41
2018-07-20T04:06:50.647Z,17.38
2018-07-20T04:09:19.088Z,17.46
2018-07-20T04:11:47.559Z,17.55
2018-07-20T04:14:15.978Z,17.54
2018-07-20T04:16:44.426Z,17.57
2018-07-20T04:19:12.859Z,17.73
2018-07-20T04:21:41.330Z,17.83
2018-07-20T04:24:10.140Z,17.69
2018-07-20T04:26:38.937Z,17.72
2018-07-20T04:29:07.376Z,17.68
2018-07-20T04:31:35.814Z,17.84
2018-07-20T04:34:04.564Z,17.96
2018-07-20T04:36:33.092Z,17.70
2018-07-20T04:39:01.881Z,17.63
2018-07-20T04:41:30.328Z,17.80
2018-07-20T04:43:59.058Z,17.68
2018-07-20T04:46:27.487Z,17.62
2018-07-20T04:48:55.930Z,17.69
2018-07-20T04:51:24.412Z,17.64
2018-07-20T04:53:52.857Z,18.16
2018-07-20T04:56:21.303Z,18.09
2018-07-20T04:58:49.750Z,18.11
2018-07-20T05:01:18.261Z,18.17
2018-07-20T05:03:47.056Z,18.37
2018-07-20T05:06:15.464Z,18.55
2018-07-20T05:08:44.002Z,18.33
2018-07-20T05:11:12.451Z,18.58
2018-07-20T05:13:40.896Z,18.63
2018-07-20T05:16:09.635Z,18.55
2018-07-20T05:18:38.167Z,18.77
2018-07-20T05:21:06.838Z,18.86
2018-07-20T05:23:35.315Z,18.58
2018-07-20T05:26:03.827Z,18.76
2018-07-20T05:28:32.278Z,19.00
2018-07-20T05:31:01.080Z,19.03
2018-07-20T05:33:29.481Z,19.32
2018-07-20T05:35:57.948Z,19.52
2018-07-20T05:38:26.400Z,19.48
2018-07-20T05:40:54.843Z,19.66
2018-07-20T05:43:23.543Z,20.00
2018-07-20T05:45:51.974Z,19.93
2018-07-20T05:48:20.436Z,20.08
2018-07-20T05:50:48.841Z,20.35
2018-07-20T05:53:17.314Z,20.29
2018-07-20T05:55:45.704Z,20.36
2018-07-20T05:58:44.540Z,20.17
2018-07-20T06:01:12.976Z,20.50
2018-07-20T06:03:41.634Z,20.71
2018-07-20T06:06:10.131Z,20.67
2018-07-20T06:08:38.554Z,20.91
2018-07-20T06:11:07.536Z,21.34
2018-07-20T06:13:36.324Z,20.89
2018-07-20T06:16:04.799Z,20.89
2018-07-20T06:18:33.224Z,20.98
2018-07-20T06:21:01.691Z,21.28
2018-07-20T06:23:30.274Z,21.58
2018-07-20T06:25:58.716Z,21.90
2018-07-20T06:28:27.192Z,21.71
2018-07-20T06:30:55.620Z,21.61
2018-07-20T06:33:24.371Z,21.64
2018-07-20T06:35:52.777Z,22.08
2018-07-20T06:38:21.236Z,22.50
2018-07-20T06:40:49.689Z,22.61
2018-07-20T06:43:18.155Z,22.70
2018-07-20T06:45:46.930Z,22.81
2018-07-20T06:48:15.372Z,22.74
2018-07-20T06:50:43.778Z,23.20
2018-07-20T06:53:12.251Z,23.23
2018-07-20T06:55:40.665Z,23.11
2018-07-20T06:58:09.120Z,23.22
2018-07-20T07:00:37.572Z,23.18
2018-07-20T07:03:06.324Z,23.55
2018-07-20T07:05:34.761Z,23.45
2018-07-20T07:08:03.230Z,23.40
2018-07-20T07:10:31.947Z,23.80
2018-07-20T07:13:00.347Z,24.03
2018-07-20T07:15:28.791Z,24.25
2018-07-20T07:17:57.265Z,24.06
2018-07-20T07:20:25.827Z,23.79
2018-07-20T07:22:55.530Z,24.11
2018-07-20T07:25:23.972Z,24.23
2018-07-20T07:27:52.420Z,24.26
2018-07-20T07:30:21.122Z,24.54
2018-07-20T07:32:50.100Z,24.36
2018-07-20T07:35:18.485Z,24.46
2018-07-20T07:37:46.907Z,24.62
2018-07-20T07:40:15.326Z,24.93
2018-07-20T07:42:43.794Z,24.81
2018-07-20T07:45:12.308Z,24.82
2018-07-20T07:47:40.907Z,24.78
2018-07-20T07:50:09.397Z,24.94
2018-07-20T07:52:37.865Z,25.10
2018-07-20T07:55:06.613Z,25.41
2018-07-20T07:57:35.066Z,25.15
2018-07-20T08:00:03.545Z,25.29
2018-07-20T08:02:32.015Z,25.34
2018-07-20T08:05:00.637Z,25.46
2018-07-20T08:07:29.075Z,25.60
2018-07-20T08:09:57.881Z,25.09
2018-07-20T08:12:26.236Z,25.30
2018-07-20T08:14:54.706Z,25.66
2018-07-20T08:17:23.148Z,25.75
2018-07-20T08:19:52.669Z,25.99
2018-07-20T08:22:21.174Z,26.04
2018-07-20T08:24:49.687Z,26.08
2018-07-20T08:27:18.251Z,25.80
2018-07-20T08:29:47.135Z,25.89
2018-07-20T08:32:15.676Z,26.11
2018-07-20T08:34:44.113Z,26.51
2018-07-20T08:37:12.575Z,26.06
2018-07-20T08:39:41.235Z,26.88
2018-07-20T08:42:10.136Z,26.68
2018-07-20T08:44:38.611Z,26.82
2018-07-20T08:47:07.023Z,26.64
2018-07-20T08:49:35.430Z,26.76
2018-07-20T08:52:03.909Z,26.90
2018-07-20T08:54:32.391Z,26.80
2018-07-20T08:57:00.948Z,27.28
2018-07-20T08:59:29.385Z,27.33
2018-07-20T09:01:57.935Z,27.42
2018-07-20T09:04:26.337Z,27.21
2018-07-20T09:06:54.763Z,27.91
2018-07-20T09:09:23.231Z,27.19
2018-07-20T09:11:51.835Z,27.12
2018-07-20T09:14:20.276Z,27.50
2018-07-20T09:16:48.821Z,27.59
2018-07-20T09:19:17.276Z,28.10
2018-07-20T09:21:45.911Z,28.08
2018-07-20T09:24:14.355Z,28.08
2018-07-20T09:26:42.792Z,27.56
2018-07-20T09:29:11.205Z,27.96
2018-07-20T09:31:39.656Z,27.81
2018-07-20T09:34:08.130Z,28.58
2018-07-20T09:36:36.547Z,28.71
2018-07-20T09:39:07.936Z,28.36
2018-07-20T09:41:36.421Z,28.26
2018-07-20T09:44:05.109Z,28.74
2018-07-20T09:46:34.040Z,28.46
2018-07-20T09:49:02.809Z,28.27
2018-07-20T09:51:31.256Z,28.15
2018-07-20T09:54:00.128Z,28.57
2018-07-20T09:56:28.984Z,28.96
2018-07-20T09:58:57.484Z,28.73
2018-07-20T10:01:25.942Z,28.86
2018-07-20T10:04:01.037Z,29.61
2018-07-20T10:06:29.662Z,29.89
2018-07-20T10:08:58.201Z,28.73
2018-07-20T10:11:26.847Z,29.34
2018-07-20T10:13:55.288Z,29.46
2018-07-20T10:16:23.724Z,29.56
2018-07-20T10:18:52.165Z,29.34
2018-07-20T10:21:20.646Z,29.76
2018-07-20T10:23:49.538Z,29.89
2018-07-20T10:26:18.214Z,30.54
2018-07-20T10:28:46.652Z,30.26
2018-07-20T10:31:15.393Z,30.76
2018-07-20T10:33:43.868Z,30.99
2018-07-20T10:36:12.318Z,30.82
2018-07-20T10:38:41.188Z,30.23
2018-07-20T10:41:09.894Z,30.96
2018-07-20T10:43:38.336Z,30.70
2018-07-20T10:46:06.803Z,30.79
2018-07-20T10:48:35.275Z,30.22
2018-07-20T10:51:03.686Z,30.44
2018-07-20T10:53:32.160Z,30.65
2018-07-20T10:56:00.664Z,30.33
2018-07-20T10:58:29.512Z,30.50
2018-07-20T11:00:58.156Z,30.59
2018-07-20T11:03:26.608Z,31.01
2018-07-20T11:05:55.007Z,31.39
2018-07-20T11:08:23.425Z,31.03
2018-07-20T11:10:51.893Z,31.08
2018-07-20T11:13:20.666Z,31.19
2018-07-20T11:15:49.097Z,31.52
2018-07-20T11:18:17.540Z,31.39
2018-07-20T11:20:45.964Z,31.66
2018-07-20T11:23:14.482Z,31.52
2018-07-20T11:25:42.956Z,31.17
2018-07-20T11:28:11.597Z,31.21
2018-07-20T11:30:40.807Z,31.29
2018-07-20T11:33:09.268Z,31.27
2018-07-20T11:35:37.697Z,31.59
2018-07-20T11:38:06.124Z,31.83
2018-07-20T11:40:34.518Z,32.56
2018-07-20T11:43:03.012Z,31.85
2018-07-20T11:45:31.407Z,32.74
2018-07-20T11:48:00.368Z,33.27
2018-07-20T11:50:28.848Z,33.37
2018-07-20T11:52:57.287Z,33.66
2018-07-20T11:55:25.733Z,32.02
2018-07-20T11:57:54.259Z,34.23
2018-07-20T12:00:22.851Z,34.01
2018-07-20T12:02:51.357Z,34.13
2018-07-20T12:05:19.803Z,32.02
2018-07-20T12:07:48.459Z,32.46
2018-07-20T12:10:17.153Z,32.41
2018-07-20T12:13:48.944Z,32.83
2018-07-20T12:16:17.659Z,32.90
2018-07-20T12:18:46.187Z,34.93
2018-07-20T12:21:14.645Z,35.99
2018-07-20T12:23:43.259Z,36.11
2018-07-20T12:26:11.920Z,36.48
2018-07-20T12:28:40.393Z,37.04
2018-07-20T12:31:08.980Z,37.38
2018-07-20T12:33:37.542Z,37.15
2018-07-20T12:36:06.437Z,37.57
2018-07-20T12:38:34.899Z,37.57
2018-07-20T12:41:03.629Z,36.60
2018-07-20T12:43:32.203Z,36.43
2018-07-20T12:46:00.637Z,36.74
2018-07-20T12:48:29.514Z,37.68
2018-07-20T12:50:57.956Z,35.96
2018-07-20T12:53:27.027Z,34.67
2018-07-20T12:55:55.494Z,36.83
2018-07-20T12:58:24.195Z,38.13
2018-07-20T13:00:52.836Z,38.02
2018-07-20T13:03:21.292Z,37.22
2018-07-20T13:05:49.737Z,36.90
2018-07-20T13:08:18.224Z,38.55
2018-07-20T13:10:46.733Z,36.06
2018-07-20T13:13:15.244Z,37.80
2018-07-20T13:15:44.106Z,37.75
2018-07-20T13:18:12.637Z,37.26
2018-07-20T13:20:41.084Z,37.24
2018-07-20T13:23:09.603Z,37.36
2018-07-20T13:25:38.367Z,38.64
2018-07-20T13:28:06.927Z,37.21
2018-07-20T13:30:35.379Z,35.95
2018-07-20T13:33:04.199Z,37.33
2018-07-20T13:35:32.633Z,36.53
2018-07-20T13:38:01.169Z,37.14
2018-07-20T13:40:29.604Z,37.01
2018-07-20T13:42:58.043Z,37.59
2018-07-20T13:45:26.542Z,37.17
2018-07-20T13:47:54.955Z,38.42
2018-07-20T13:50:23.488Z,36.64
2018-07-20T13:52:51.999Z,36.63
2018-07-20T13:55:20.497Z,38.32
2018-07-20T13:57:49.113Z,38.46
2018-07-20T14:00:17.820Z,38.29
2018-07-20T14:02:46.493Z,37.35
2018-07-20T14:05:14.955Z,37.42
2018-07-20T14:07:43.433Z,37.83
2018-07-20T14:10:11.907Z,37.43
2018-07-20T14:12:40.425Z,37.80
2018-07-20T14:15:08.919Z,38.00
2018-07-20T14:17:37.456Z,36.56
2018-07-20T14:20:06.253Z,37.44
2018-07-20T14:22:34.731Z,37.06
2018-07-20T14:25:03.201Z,38.72
2018-07-20T14:27:31.622Z,39.58
2018-07-20T14:30:00.082Z,38.18
2018-07-20T14:32:29.524Z,36.77
2018-07-20T14:34:57.964Z,37.62
2018-07-20T14:37:26.632Z,38.09
2018-07-20T14:39:55.110Z,37.72
2018-07-20T14:42:23.559Z,39.88
2018-07-20T14:44:52.015Z,37.13
2018-07-20T14:47:20.682Z,37.89
2018-07-20T14:49:49.116Z,38.04
2018-07-20T14:52:17.558Z,37.00
2018-07-20T14:54:46.098Z,38.13
2018-07-20T14:57:14.551Z,39.69
2018-07-20T14:59:42.958Z,36.36
2018-07-20T15:02:11.402Z,36.39
2018-07-20T15:04:39.869Z,37.07
2018-07-20T15:07:08.487Z,37.71
2018-07-20T15:09:36.917Z,39.09
2018-07-20T15:12:05.482Z,37.89
2018-07-20T15:14:33.908Z,39.02
2018-07-20T15:17:02.578Z,38.28
2018-07-20T15:19:31.009Z,38.26
2018-07-20T15:21:59.459Z,37.92
2018-07-20T15:24:27.884Z,36.63
2018-07-20T15:26:56.676Z,35.87
2018-07-20T15:29:25.443Z,37.85
2018-07-20T15:31:53.895Z,37.35
2018-07-20T15:34:22.314Z,37.10
2018-07-20T15:36:50.790Z,35.82
2018-07-20T15:39:19.244Z,37.58
2018-07-20T15:41:47.806Z,37.88
2018-07-20T15:44:16.359Z,36.99
2018-07-20T15:46:45.241Z,37.45
2018-07-20T15:49:13.498Z,37.37
2018-07-20T15:53:35.343Z,37.53
2018-07-20T15:54:10.832Z,38.85
2018-07-20T15:56:39.347Z,39.40
2018-07-20T15:59:07.869Z,38.49
2018-07-20T16:01:36.313Z,38.69
2018-07-20T16:04:05.144Z,39.74
2018-07-20T16:06:33.597Z,39.43
2018-07-20T16:09:02.036Z,39.54
2018-07-20T16:11:30.558Z,39.79
2018-07-20T16:13:59.326Z,41.63
2018-07-20T16:16:28.113Z,41.00
2018-07-20T16:18:56.542Z,40.78
2018-07-20T16:21:24.983Z,40.82
2018-07-20T16:23:53.796Z,40.69
2018-07-20T16:26:22.315Z,40.96
2018-07-20T16:28:51.023Z,39.70
2018-07-20T16:31:20.014Z,40.51
2018-07-20T16:33:48.422Z,40.23
2018-07-20T16:36:16.867Z,38.43
2018-07-20T16:38:45.301Z,39.22
2018-07-20T16:41:13.776Z,39.13
2018-07-20T16:43:42.715Z,38.98
2018-07-20T16:46:11.186Z,39.98
2018-07-20T16:48:39.777Z,37.55
2018-07-20T16:51:08.242Z,39.79
2018-07-20T16:53:37.055Z,42.11
2018-07-20T16:56:05.501Z,41.63
2018-07-20T16:58:33.962Z,42.20
2018-07-20T17:01:02.421Z,41.56
2018-07-20T17:03:31.013Z,41.56
2018-07-20T17:05:59.660Z,41.61
2018-07-20T17:08:28.099Z,40.46
2018-07-20T17:10:56.550Z,40.80
2018-07-20T17:13:25.019Z,40.81
2018-07-20T17:15:53.451Z,40.77
2018-07-20T17:18:21.907Z,42.16
2018-07-20T17:20:50.367Z,42.05
2018-07-20T17:23:19.199Z,41.32
2018-07-20T17:25:47.644Z,39.05
2018-07-20T17:28:16.156Z,41.06
2018-07-20T17:30:44.533Z,40.97
2018-07-20T17:33:12.934Z,41.12
2018-07-20T17:35:41.419Z,40.78
2018-07-20T17:38:09.858Z,39.88
2018-07-20T17:40:38.271Z,40.29
2018-07-20T17:43:06.737Z,39.70
2018-07-20T17:45:35.233Z,38.93
2018-07-20T17:48:03.707Z,37.29
2018-07-20T17:50:32.370Z,35.99
2018-07-20T17:53:00.822Z,35.75
2018-07-20T17:55:29.256Z,37.16
2018-07-20T17:57:57.672Z,36.85
2018-07-20T18:00:26.153Z,36.76
2018-07-20T18:02:54.933Z,36.54
2018-07-20T18:05:23.359Z,35.04
2018-07-20T18:07:51.798Z,34.75
2018-07-20T18:10:20.261Z,34.27
2018-07-20T18:12:48.699Z,34.29
2018-07-20T18:15:17.123Z,33.52
2018-07-20T18:17:45.598Z,33.08
2018-07-20T18:20:14.095Z,32.62
2018-07-20T18:22:42.516Z,32.03
2018-07-20T18:25:10.949Z,31.38
2018-07-20T18:27:39.379Z,31.27
2018-07-20T18:30:07.996Z,30.63
2018-07-20T18:32:36.446Z,30.55
2018-07-20T18:35:04.901Z,30.20
2018-07-20T18:37:33.456Z,30.03
2018-07-20T18:40:01.932Z,29.67
2018-07-20T18:42:30.379Z,29.46
2018-07-20T18:44:58.891Z,29.15
2018-07-20T18:47:27.340Z,28.98
2018-07-20T18:49:55.788Z,28.28
2018-07-20T18:52:24.248Z,27.79
2018-07-20T18:54:52.645Z,27.70
2018-07-20T18:57:21.135Z,27.78
2018-07-20T18:59:49.601Z,27.95
2018-07-20T19:02:18.027Z,27.75
2018-07-20T19:04:46.912Z,27.49
2018-07-20T19:07:15.344Z,27.31
2018-07-20T19:09:43.914Z,27.31
2018-07-20T19:12:12.654Z,26.87
2018-07-20T19:14:41.127Z,26.63
2018-07-20T19:17:09.881Z,26.57
2018-07-20T19:19:38.415Z,26.51
2018-07-20T19:22:07.232Z,26.24
2018-07-20T19:24:35.667Z,26.30
2018-07-20T19:27:04.172Z,26.35
2018-07-20T19:29:32.648Z,26.13
2018-07-20T19:32:01.380Z,26.04
2018-07-20T19:34:29.883Z,25.93
2018-07-20T19:36:58.596Z,25.76
2018-07-20T19:39:27.036Z,25.36
2018-07-20T19:41:55.519Z,25.35
2018-07-20T19:44:23.983Z,25.34
2018-07-20T19:46:52.380Z,25.27
2018-07-20T19:49:21.070Z,25.32
2018-07-20T19:51:49.528Z,25.30
2018-07-20T19:54:17.950Z,25.21
2018-07-20T19:56:46.644Z,25.20
2018-07-20T19:59:15.123Z,25.17
2018-07-20T20:01:43.712Z,25.14
2018-07-20T20:04:12.290Z,24.96
2018-07-20T20:06:40.739Z,25.02
2018-07-20T20:09:10.611Z,24.86
2018-07-20T20:11:39.121Z,24.83
2018-07-20T20:14:07.605Z,24.75
2018-07-20T20:16:36.109Z,24.69
2018-07-20T20:19:04.766Z,24.77
2018-07-20T20:21:33.369Z,24.77
2018-07-20T20:24:01.846Z,24.73
2018-07-20T20:26:30.297Z,24.68
2018-07-20T20:28:58.790Z,24.65
2018-07-20T20:31:27.275Z,24.60
2018-07-20T20:33:55.752Z,24.62
2018-07-20T20:36:24.407Z,24.61
2018-07-20T20:38:52.833Z,24.46
2018-07-20T20:42:24.371Z,24.22
2018-07-20T20:44:52.893Z,24.33
2018-07-20T20:47:21.882Z,24.20
2018-07-20T20:49:50.525Z,24.22
2018-07-20T20:52:19.617Z,24.05
2018-07-20T20:54:48.050Z,23.94
2018-07-20T20:57:16.608Z,23.89
2018-07-20T20:59:45.265Z,23.87
2018-07-20T21:02:13.765Z,23.80
2018-07-20T21:04:42.188Z,23.78
2018-07-20T21:07:10.657Z,23.75
2018-07-20T21:09:39.103Z,23.75
2018-07-20T21:12:07.668Z,23.66
2018-07-20T21:14:36.178Z,23.62
2018-07-20T21:17:04.921Z,23.64
2018-07-20T21:19:33.565Z,23.73
2018-07-20T21:22:01.975Z,23.83
2018-07-20T21:24:30.423Z,23.79
2018-07-20T21:26:59.104Z,23.65
2018-07-20T21:29:27.577Z,23.55
2018-07-20T21:31:56.024Z,23.58
2018-07-20T21:34:24.426Z,23.53
2018-07-20T21:36:53.154Z,23.41
2018-07-20T21:39:21.822Z,23.21
2018-07-20T21:41:50.263Z,23.02
2018-07-20T21:44:18.708Z,23.00
2018-07-20T21:46:47.186Z,22.96
2018-07-20T21:49:16.109Z,22.95
2018-07-20T21:51:44.563Z,22.82
2018-07-20T21:54:13.017Z,22.80
2018-07-20T21:56:41.464Z,22.86
2018-07-20T21:59:09.918Z,22.78
2018-07-20T22:01:38.347Z,23.00
2018-07-20T22:04:06.779Z,22.60
2018-07-20T22:06:35.647Z,22.21
2018-07-20T22:09:04.796Z,22.61
2018-07-20T22:11:33.248Z,22.88
2018-07-20T22:14:01.659Z,22.57
2018-07-20T22:16:30.626Z,22.40
2018-07-20T22:18:59.079Z,22.74
2018-07-20T22:21:27.531Z,22.68
2018-07-20T22:23:56.021Z,22.49
2018-07-20T22:26:24.461Z,22.31
2018-07-20T22:28:52.922Z,22.02
2018-07-20T22:31:21.348Z,21.87
2018-07-20T22:33:49.815Z,21.79
2018-07-20T22:36:18.298Z,22.01
2018-07-20T22:38:46.711Z,21.90
2018-07-20T22:41:15.159Z,21.95
2018-07-20T22:43:43.757Z,21.78
2018-07-20T22:46:12.248Z,21.75
2018-07-20T22:48:40.743Z,21.65
2018-07-20T22:51:09.207Z,21.80
2018-07-20T22:53:37.651Z,21.82
2018-07-20T22:57:09.364Z,21.71
2018-07-20T22:59:37.852Z,21.72
2018-07-20T23:02:06.866Z,21.73
2018-07-20T23:04:35.316Z,21.68
2018-07-20T23:07:04.271Z,21.46
2018-07-20T23:09:32.971Z,21.22
2018-07-20T23:12:01.502Z,21.51
2018-07-20T23:14:30.087Z,21.48
2018-07-20T23:16:58.683Z,21.39
2018-07-20T23:19:27.150Z,21.02
2018-07-20T23:21:55.579Z,21.02
2018-07-20T23:24:24.086Z,20.83
2018-07-20T23:26:52.511Z,20.75
2018-07-20T23:29:21.402Z,20.97
2018-07-20T23:31:49.899Z,21.06
2018-07-20T23:34:18.376Z,20.86
2018-07-20T23:36:46.887Z,20.96
2018-07-20T23:39:15.414Z,20.89
2018-07-20T23:41:43.912Z,20.89
2018-07-20T23:44:12.495Z,20.96
2018-07-20T23:46:41.651Z,20.82
2018-07-20T23:49:10.144Z,20.62
2018-07-20T23:51:38.866Z,20.60
2018-07-20T23:54:07.691Z,20.63
2018-07-20T23:56:36.151Z,20.59
2018-07-20T23:59:04.936Z,20.33
